createdAt,value
2022-10-06T00:01:26.778Z,5.96
2022-10-06T00:03:54.564Z,5.95
2022-10-06T00:06:22.407Z,5.94
2022-10-06T00:08:51.405Z,5.91
2022-10-06T00:11:23.928Z,5.90
2022-10-06T00:13:55.193Z,5.89
2022-10-06T00:16:25.146Z,5.88
2022-10-06T00:19:04.171Z,5.88
2022-10-06T00:21:42.133Z,5.86
2022-10-06T00:24:22.387Z,5.84
2022-10-06T00:26:50.175Z,5.82
2022-10-06T00:29:18.364Z,5.78
2022-10-06T00:31:46.004Z,5.76
2022-10-06T00:34:13.737Z,5.75
2022-10-06T00:36:41.418Z,5.73
2022-10-06T00:39:09.267Z,5.72
2022-10-06T00:41:36.914Z,5.70
2022-10-06T00:44:04.760Z,5.67
2022-10-06T00:46:36.822Z,5.68
2022-10-06T00:49:20.399Z,5.66
2022-10-06T00:51:54.023Z,5.65
2022-10-06T00:54:21.717Z,5.63
2022-10-06T00:56:48.849Z,5.61
2022-10-06T00:59:17.704Z,5.61
2022-10-06T01:02:07.167Z,5.60
2022-10-06T01:04:36.767Z,5.59
2022-10-06T01:07:04.234Z,5.58
2022-10-06T01:09:31.582Z,5.59
2022-10-06T01:12:01.505Z,5.59
2022-10-06T01:14:29.236Z,5.59
2022-10-06T01:17:02.801Z,5.59
2022-10-06T01:19:48.834Z,5.59
2022-10-06T01:22:20.776Z,5.58
2022-10-06T01:24:50.200Z,5.56
2022-10-06T01:27:18.285Z,5.57
2022-10-06T01:29:45.889Z,5.56
2022-10-06T01:32:13.253Z,5.55
2022-10-06T01:34:40.603Z,5.54
2022-10-06T01:37:08.127Z,5.53
2022-10-06T01:39:36.207Z,5.53
2022-10-06T01:42:03.813Z,5.53
2022-10-06T01:44:31.466Z,5.52
2022-10-06T01:46:58.749Z,5.50
2022-10-06T01:49:26.673Z,5.49
2022-10-06T01:51:54.475Z,5.47
2022-10-06T01:54:22.023Z,5.46
2022-10-06T01:56:49.625Z,5.44
2022-10-06T01:59:17.419Z,5.41
2022-10-06T02:01:45.211Z,5.38
2022-10-06T02:04:13.106Z,5.34
2022-10-06T02:06:41.053Z,5.33
2022-10-06T02:09:08.854Z,5.32
2022-10-06T02:11:38.437Z,5.31
2022-10-06T02:14:07.662Z,5.27
2022-10-06T02:16:38.748Z,5.25
2022-10-06T02:19:07.396Z,5.25
2022-10-06T02:21:36.679Z,5.24
2022-10-06T02:24:04.805Z,5.24
2022-10-06T02:26:34.447Z,5.24
2022-10-06T02:29:02.184Z,5.24
2022-10-06T02:31:29.740Z,5.25
2022-10-06T02:33:58.424Z,5.23
2022-10-06T02:36:26.188Z,5.22
2022-10-06T02:38:54.262Z,5.20
2022-10-06T02:41:21.969Z,5.18
2022-10-06T02:43:49.362Z,5.17
2022-10-06T02:46:18.053Z,5.15
2022-10-06T02:48:47.036Z,5.15
2022-10-06T02:51:16.620Z,5.15
2022-10-06T02:53:45.617Z,5.13
2022-10-06T02:56:17.608Z,5.11
2022-10-06T02:58:47.256Z,5.09
2022-10-06T03:01:19.179Z,5.06
2022-10-06T03:03:46.985Z,5.02
2022-10-06T03:06:23.377Z,5.00
2022-10-06T03:09:08.793Z,4.98
2022-10-06T03:11:40.165Z,4.95
2022-10-06T03:14:08.033Z,4.93
2022-10-06T03:16:40.380Z,4.90
2022-10-06T03:19:09.630Z,4.88
2022-10-06T03:21:39.350Z,4.84
2022-10-06T03:24:06.713Z,4.83
2022-10-06T03:26:36.710Z,4.81
2022-10-06T03:29:07.991Z,4.79
2022-10-06T03:31:34.399Z,4.78
2022-10-06T03:34:02.355Z,4.75
2022-10-06T03:36:32.829Z,4.71
2022-10-06T03:39:02.041Z,4.69
2022-10-06T03:41:34.747Z,4.66
2022-10-06T03:44:02.589Z,4.65
2022-10-06T03:46:33.028Z,4.66
2022-10-06T03:49:01.203Z,4.65
2022-10-06T03:51:32.224Z,4.63
2022-10-06T03:53:59.835Z,4.60
2022-10-06T03:56:35.386Z,4.57
2022-10-06T03:59:05.354Z,4.54
2022-10-06T04:01:38.024Z,4.50
2022-10-06T04:04:09.809Z,4.47
2022-10-06T04:06:38.988Z,4.45
2022-10-06T04:09:14.724Z,4.43
2022-10-06T04:11:40.658Z,4.42
2022-10-06T04:14:10.847Z,4.39
2022-10-06T04:16:40.592Z,4.37
2022-10-06T04:19:11.382Z,4.36
2022-10-06T04:21:42.442Z,4.34
2022-10-06T04:24:12.450Z,4.30
2022-10-06T04:26:45.956Z,4.28
2022-10-06T04:29:13.993Z,4.24
2022-10-06T04:31:41.957Z,4.23
2022-10-06T04:34:14.638Z,4.20
2022-10-06T04:36:43.045Z,4.19
2022-10-06T04:39:16.050Z,4.20
2022-10-06T04:41:46.563Z,4.21
2022-10-06T04:44:15.902Z,4.20
2022-10-06T04:46:45.167Z,4.22
2022-10-06T04:49:19.439Z,4.23
2022-10-06T04:51:43.289Z,4.26
2022-10-06T04:54:10.834Z,4.29
2022-10-06T04:56:38.586Z,4.31
2022-10-06T04:59:06.240Z,4.35
2022-10-06T05:01:36.480Z,4.42
2022-10-06T05:04:06.148Z,4.48
2022-10-06T05:06:37.559Z,4.53
2022-10-06T05:09:10.753Z,4.58
2022-10-06T05:11:39.714Z,4.66
2022-10-06T05:14:09.379Z,4.77
2022-10-06T05:16:38.684Z,4.93
2022-10-06T05:19:07.659Z,5.12
2022-10-06T05:21:36.313Z,5.34
2022-10-06T05:24:03.957Z,5.55
2022-10-06T05:26:33.030Z,5.82
2022-10-06T05:29:01.728Z,6.08
2022-10-06T05:31:32.189Z,6.37
2022-10-06T05:34:01.475Z,6.69
2022-10-06T05:36:30.657Z,7.01
2022-10-06T05:38:58.489Z,7.37
2022-10-06T05:41:30.087Z,7.73
2022-10-06T05:43:59.502Z,8.10
2022-10-06T05:46:32.200Z,8.50
2022-10-06T05:49:07.254Z,8.89
2022-10-06T05:51:35.087Z,9.30
2022-10-06T05:54:04.262Z,9.66
2022-10-06T05:56:33.750Z,9.92
2022-10-06T05:59:03.062Z,10.16
2022-10-06T06:01:35.678Z,10.29
2022-10-06T06:04:06.642Z,10.32
2022-10-06T06:06:41.662Z,10.41
2022-10-06T06:09:15.759Z,10.55
2022-10-06T06:11:45.852Z,10.68
2022-10-06T06:14:17.552Z,10.85
2022-10-06T06:22:41.233Z,11.23
2022-10-06T06:25:11.296Z,11.32
2022-10-06T06:27:40.556Z,11.40
2022-10-06T06:30:09.178Z,11.51
2022-10-06T06:32:37.903Z,11.54
2022-10-06T06:35:06.537Z,11.53
2022-10-06T06:37:33.797Z,11.53
2022-10-06T06:40:01.957Z,11.56
2022-10-06T06:42:30.949Z,11.67
2022-10-06T06:44:59.769Z,11.84
2022-10-06T06:47:34.480Z,12.01
2022-10-06T06:50:02.462Z,12.17
2022-10-06T06:52:31.859Z,12.39
2022-10-06T06:54:59.706Z,12.69
2022-10-06T06:57:27.664Z,13.06
2022-10-06T07:00:00.560Z,13.42
2022-10-06T07:02:28.986Z,13.76
2022-10-06T07:04:56.509Z,14.03
2022-10-06T07:07:23.989Z,14.24
2022-10-06T07:09:51.657Z,14.32
2022-10-06T07:12:20.725Z,14.43
2022-10-06T07:15:07.817Z,14.62
2022-10-06T07:17:55.148Z,14.80
2022-10-06T07:20:41.146Z,15.02
2022-10-06T07:23:33.357Z,15.04
2022-10-06T07:26:01.034Z,15.18
2022-10-06T07:28:30.178Z,15.22
2022-10-06T07:30:59.923Z,15.23
2022-10-06T07:33:28.662Z,15.15
2022-10-06T07:35:55.996Z,14.99
2022-10-06T07:38:25.375Z,14.96
2022-10-06T07:41:17.902Z,15.14
2022-10-06T07:43:26.794Z,15.43
2022-10-06T07:45:55.641Z,15.66
2022-10-06T07:48:24.845Z,15.92
2022-10-06T07:50:53.995Z,16.22
2022-10-06T07:53:29.061Z,16.40
2022-10-06T07:56:19.072Z,16.42
2022-10-06T07:58:48.812Z,16.57
2022-10-06T08:01:18.406Z,16.69
2022-10-06T08:03:47.866Z,16.73
2022-10-06T08:06:16.627Z,16.93
2022-10-06T08:08:49.022Z,17.08
2022-10-06T08:11:14.981Z,17.31
2022-10-06T08:13:44.124Z,17.44
2022-10-06T08:16:17.775Z,17.47
2022-10-06T08:18:50.355Z,17.34
2022-10-06T08:21:19.669Z,17.13
2022-10-06T08:23:47.903Z,16.85
2022-10-06T08:26:16.586Z,16.73
2022-10-06T08:28:45.986Z,16.68
2022-10-06T08:31:15.176Z,16.56
2022-10-06T08:33:44.967Z,16.49
2022-10-06T08:36:17.275Z,16.44
2022-10-06T08:38:47.007Z,16.68
2022-10-06T08:41:23.199Z,16.73
2022-10-06T08:44:09.121Z,16.71
2022-10-06T08:46:39.268Z,16.85
2022-10-06T08:49:10.053Z,17.10
2022-10-06T08:51:50.026Z,17.24
2022-10-06T08:54:38.917Z,17.36
2022-10-06T08:57:21.953Z,17.51
2022-10-06T08:59:51.910Z,17.77
2022-10-06T09:02:22.882Z,17.99
2022-10-06T09:04:50.628Z,18.28
2022-10-06T09:07:27.526Z,18.53
2022-10-06T09:10:00.959Z,18.72
2022-10-06T09:12:37.370Z,18.92
2022-10-06T09:15:18.629Z,18.99
2022-10-06T09:17:49.638Z,18.76
2022-10-06T09:20:38.428Z,18.50
2022-10-06T09:23:09.219Z,18.16
2022-10-06T09:25:37.527Z,18.00
2022-10-06T09:28:08.349Z,18.24
2022-10-06T09:30:36.976Z,18.59
2022-10-06T09:33:05.675Z,18.84
2022-10-06T09:35:34.946Z,19.05
2022-10-06T09:38:09.135Z,19.20
2022-10-06T09:40:37.152Z,19.30
2022-10-06T09:43:08.127Z,19.35
2022-10-06T09:45:35.464Z,19.44
2022-10-06T09:48:26.189Z,19.58
2022-10-06T09:51:08.743Z,19.68
2022-10-06T09:53:38.162Z,19.69
2022-10-06T09:56:19.279Z,19.76
2022-10-06T09:58:55.883Z,19.84
2022-10-06T10:01:26.135Z,19.83
2022-10-06T10:06:33.980Z,19.83
2022-10-06T10:09:23.226Z,19.83
2022-10-06T10:12:20.438Z,19.85
2022-10-06T10:14:48.049Z,19.87
2022-10-06T10:17:19.382Z,19.84
2022-10-06T10:19:50.961Z,19.82
2022-10-06T10:22:24.034Z,19.83
2022-10-06T10:24:55.001Z,19.91
2022-10-06T10:27:25.978Z,19.91
2022-10-06T10:30:06.147Z,19.91
2022-10-06T10:32:55.470Z,19.85
2022-10-06T10:35:28.694Z,19.75
2022-10-06T10:38:02.425Z,19.79
2022-10-06T10:40:42.465Z,19.88
2022-10-06T10:43:21.037Z,19.94
2022-10-06T10:46:07.284Z,20.02
2022-10-06T10:48:38.392Z,19.90
2022-10-06T10:51:27.272Z,19.70
2022-10-06T10:54:10.222Z,19.71
2022-10-06T10:56:37.587Z,19.82
2022-10-06T10:59:11.973Z,19.85
2022-10-06T11:01:55.132Z,19.85
2022-10-06T11:04:22.372Z,19.85
2022-10-06T11:07:08.222Z,19.86
2022-10-06T11:09:54.759Z,19.84
2022-10-06T11:12:34.049Z,19.85
2022-10-06T11:15:05.031Z,19.93
2022-10-06T11:17:42.897Z,19.92
2022-10-06T11:20:28.993Z,19.90
2022-10-06T11:23:33.218Z,19.92
2022-10-06T11:26:24.371Z,19.91
2022-10-06T11:29:01.760Z,19.77
2022-10-06T11:31:38.792Z,19.77
2022-10-06T11:34:06.477Z,19.88
2022-10-06T11:36:56.982Z,19.96
2022-10-06T11:39:41.367Z,20.03
2022-10-06T11:42:27.716Z,20.12
2022-10-06T11:45:09.413Z,20.05
2022-10-06T11:48:10.364Z,19.94
2022-10-06T11:50:42.126Z,19.99
2022-10-06T11:53:29.473Z,20.03
2022-10-06T11:56:16.928Z,20.10
2022-10-06T11:58:57.163Z,19.99
2022-10-06T12:01:34.002Z,19.89
2022-10-06T12:04:10.452Z,19.87
2022-10-06T12:06:47.818Z,19.87
2022-10-06T12:09:28.097Z,19.85
2022-10-06T12:11:58.020Z,19.74
2022-10-06T12:17:19.496Z,19.69
2022-10-06T12:20:13.759Z,19.66
2022-10-06T12:22:50.773Z,19.66
2022-10-06T12:25:27.479Z,19.62
2022-10-06T12:28:16.776Z,19.59
2022-10-06T12:31:02.676Z,19.56
2022-10-06T12:33:37.437Z,19.56
2022-10-06T12:36:07.446Z,19.46
2022-10-06T12:38:43.556Z,19.41
2022-10-06T12:41:14.293Z,19.36
2022-10-06T12:43:54.915Z,19.23
2022-10-06T12:46:26.021Z,19.11
2022-10-06T12:49:13.794Z,19.14
2022-10-06T12:51:43.229Z,19.10
2022-10-06T12:54:34.448Z,19.04
2022-10-06T12:57:05.205Z,18.96
2022-10-06T12:59:34.626Z,18.88
2022-10-06T13:02:20.205Z,18.78
2022-10-06T13:04:57.443Z,18.68
2022-10-06T13:07:28.294Z,18.56
2022-10-06T13:10:17.273Z,18.45
2022-10-06T13:12:46.773Z,18.34
2022-10-06T13:15:27.926Z,18.20
2022-10-06T13:18:15.705Z,18.11
2022-10-06T13:20:51.110Z,18.03
2022-10-06T13:23:24.603Z,18.03
2022-10-06T13:26:09.735Z,18.08
2022-10-06T13:28:46.083Z,18.11
2022-10-06T13:31:31.020Z,18.19
2022-10-06T13:34:04.284Z,18.23
2022-10-06T13:36:33.993Z,18.25
2022-10-06T13:39:03.773Z,18.20
2022-10-06T13:41:37.459Z,18.13
2022-10-06T13:44:14.150Z,18.18
2022-10-06T13:46:44.433Z,18.22
2022-10-06T13:49:22.957Z,18.24
2022-10-06T13:51:52.338Z,18.16
2022-10-06T13:54:30.622Z,18.08
2022-10-06T13:56:58.087Z,18.06
2022-10-06T13:59:36.760Z,18.09
2022-10-06T14:02:22.795Z,18.12
2022-10-06T14:05:29.679Z,18.15
2022-10-06T14:08:03.043Z,18.12
2022-10-06T14:10:33.948Z,18.10
2022-10-06T14:13:01.758Z,18.10
2022-10-06T14:15:32.755Z,18.08
2022-10-06T14:18:02.186Z,18.03
2022-10-06T14:20:37.561Z,17.97
2022-10-06T14:23:40.213Z,17.94
2022-10-06T14:26:08.256Z,17.90
2022-10-06T14:28:35.457Z,17.86
2022-10-06T14:31:03.616Z,17.77
2022-10-06T14:33:31.114Z,17.72
2022-10-06T14:35:58.367Z,17.68
2022-10-06T14:38:25.585Z,17.63
2022-10-06T14:40:53.099Z,17.59
2022-10-06T14:43:20.335Z,17.55
2022-10-06T14:45:47.658Z,17.51
2022-10-06T14:48:14.752Z,17.41
2022-10-06T14:50:46.180Z,17.34
2022-10-06T14:53:15.887Z,17.29
2022-10-06T14:55:44.256Z,17.22
2022-10-06T14:58:11.940Z,17.18
2022-10-06T15:00:41.395Z,17.11
2022-10-06T15:03:08.948Z,17.04
2022-10-06T15:05:38.021Z,16.98
2022-10-06T15:08:11.215Z,16.90
2022-10-06T15:10:38.634Z,16.82
2022-10-06T15:13:08.710Z,16.74
2022-10-06T15:15:37.542Z,16.66
2022-10-06T15:18:05.236Z,16.56
2022-10-06T15:20:32.325Z,16.47
2022-10-06T15:22:59.641Z,16.38
2022-10-06T15:25:44.932Z,16.29
2022-10-06T15:28:31.400Z,16.21
2022-10-06T15:30:58.661Z,16.12
2022-10-06T15:33:29.352Z,15.99
2022-10-06T15:36:17.327Z,15.89
2022-10-06T15:38:45.121Z,15.74
2022-10-06T15:41:12.936Z,15.54
2022-10-06T15:43:55.429Z,15.35
2022-10-06T15:46:28.750Z,15.16
2022-10-06T15:48:59.773Z,14.96
2022-10-06T15:51:36.611Z,14.76
2022-10-06T15:54:06.757Z,14.57
2022-10-06T15:56:34.319Z,14.38
2022-10-06T15:59:01.884Z,14.22
2022-10-06T16:01:39.494Z,14.07
2022-10-06T16:04:36.848Z,13.90
2022-10-06T16:07:06.381Z,13.75
2022-10-06T16:09:39.310Z,13.56
2022-10-06T16:12:07.335Z,13.42
2022-10-06T16:14:35.041Z,13.29
2022-10-06T16:17:03.743Z,13.17
2022-10-06T16:19:31.933Z,13.04
2022-10-06T16:22:00.450Z,12.91
2022-10-06T16:24:27.991Z,12.80
2022-10-06T16:26:57.135Z,12.70
2022-10-06T16:29:24.531Z,12.62
2022-10-06T16:31:51.788Z,12.55
2022-10-06T16:34:19.099Z,12.48
2022-10-06T16:36:46.493Z,12.41
2022-10-06T16:39:15.536Z,12.35
2022-10-06T16:41:43.359Z,12.28
2022-10-06T16:44:10.860Z,12.19
2022-10-06T16:46:38.356Z,12.10
2022-10-06T16:49:09.058Z,12.01
2022-10-06T16:51:41.468Z,11.94
2022-10-06T16:54:11.298Z,11.86
2022-10-06T16:56:48.219Z,11.76
2022-10-06T16:59:20.354Z,11.65
2022-10-06T17:01:48.844Z,11.55
2022-10-06T17:04:21.552Z,11.47
2022-10-06T17:06:52.393Z,11.39
2022-10-06T17:09:21.518Z,11.29
2022-10-06T17:11:52.102Z,11.20
2022-10-06T17:14:20.818Z,11.14
2022-10-06T17:16:50.281Z,11.06
2022-10-06T17:19:18.910Z,10.99
2022-10-06T17:21:49.637Z,10.91
2022-10-06T17:24:18.247Z,10.86
2022-10-06T17:26:48.859Z,10.81
2022-10-06T17:29:22.888Z,10.73
2022-10-06T17:31:53.116Z,10.66
2022-10-06T17:34:23.549Z,10.61
2022-10-06T17:36:51.787Z,10.56
2022-10-06T17:39:22.001Z,10.53
2022-10-06T17:41:51.315Z,10.50
2022-10-06T17:44:23.873Z,10.46
2022-10-06T17:46:53.369Z,10.45
2022-10-06T17:49:23.238Z,10.44
2022-10-06T17:51:51.526Z,10.42
2022-10-06T17:54:20.570Z,10.41
2022-10-06T17:56:49.795Z,10.39
2022-10-06T17:59:19.538Z,10.36
2022-10-06T18:01:47.116Z,10.33
2022-10-06T18:04:19.634Z,10.31
2022-10-06T18:06:54.365Z,10.25
2022-10-06T18:09:20.674Z,10.21
2022-10-06T18:11:50.309Z,10.16
2022-10-06T18:14:19.227Z,10.13
2022-10-06T18:16:58.578Z,10.09
2022-10-06T18:19:29.207Z,10.03
2022-10-06T18:21:59.545Z,9.99
2022-10-06T18:24:29.750Z,9.95
2022-10-06T18:26:59.222Z,9.92
2022-10-06T18:29:32.288Z,9.89
2022-10-06T18:32:26.956Z,9.83
2022-10-06T18:36:58.008Z,9.75
2022-10-06T18:39:25.822Z,9.71
2022-10-06T18:41:54.626Z,9.64
2022-10-06T18:44:40.113Z,9.59
2022-10-06T18:47:25.525Z,9.54
2022-10-06T18:49:53.033Z,9.49
2022-10-06T18:52:21.171Z,9.44
2022-10-06T18:54:48.593Z,9.42
2022-10-06T18:57:16.395Z,9.41
2022-10-06T18:59:44.213Z,9.39
2022-10-06T19:02:11.671Z,9.35
2022-10-06T19:04:39.550Z,9.31
2022-10-06T19:07:07.038Z,9.29
2022-10-06T19:09:34.695Z,9.25
2022-10-06T19:12:02.144Z,9.21
2022-10-06T19:14:33.329Z,9.18
2022-10-06T19:17:08.485Z,9.13
2022-10-06T19:19:35.810Z,9.07
2022-10-06T19:22:04.426Z,9.02
2022-10-06T19:24:37.577Z,8.98
2022-10-06T19:27:09.606Z,8.94
2022-10-06T19:29:42.821Z,8.89
2022-10-06T19:32:10.429Z,8.86
2022-10-06T19:34:37.949Z,8.81
2022-10-06T19:37:09.860Z,8.76
2022-10-06T19:39:41.451Z,8.73
2022-10-06T19:42:32.131Z,8.67
2022-10-06T19:44:59.761Z,8.62
2022-10-06T19:47:28.806Z,8.58
2022-10-06T19:50:00.837Z,8.55
2022-10-06T19:52:26.775Z,8.52
2022-10-06T19:54:54.206Z,8.51
2022-10-06T19:57:21.750Z,8.50
2022-10-06T19:59:50.152Z,8.50
2022-10-06T20:02:19.695Z,8.50
2022-10-06T20:04:47.183Z,8.48
2022-10-06T20:07:14.401Z,8.47
2022-10-06T20:09:41.959Z,8.46
2022-10-06T20:12:09.110Z,8.44
2022-10-06T20:14:36.318Z,8.42
2022-10-06T20:17:03.456Z,8.41
2022-10-06T20:19:31.153Z,8.40
2022-10-06T20:21:58.609Z,8.39
2022-10-06T20:24:26.013Z,8.35
2022-10-06T20:26:53.860Z,8.33
2022-10-06T20:29:23.313Z,8.29
2022-10-06T20:31:53.241Z,8.27
2022-10-06T20:34:22.876Z,8.25
2022-10-06T20:36:55.708Z,8.22
2022-10-06T20:39:40.046Z,8.20
2022-10-06T20:42:13.669Z,8.18
2022-10-06T20:44:37.563Z,8.12
2022-10-06T20:47:04.701Z,8.10
2022-10-06T20:49:32.252Z,8.07
2022-10-06T20:52:01.339Z,8.06
2022-10-06T20:54:33.856Z,8.02
2022-10-06T20:57:02.880Z,7.98
2022-10-06T20:59:31.291Z,7.95
2022-10-06T21:01:59.445Z,7.91
2022-10-06T21:04:27.122Z,7.86
2022-10-06T21:06:54.273Z,7.85
2022-10-06T21:09:23.639Z,7.83
2022-10-06T21:11:52.128Z,7.80
2022-10-06T21:14:19.388Z,7.79
2022-10-06T21:16:48.266Z,7.76
2022-10-06T21:19:17.383Z,7.76
2022-10-06T21:21:51.260Z,7.74
2022-10-06T21:24:18.582Z,7.73
2022-10-06T21:26:45.956Z,7.70
2022-10-06T21:29:15.354Z,7.68
2022-10-06T21:31:44.474Z,7.65
2022-10-06T21:34:13.707Z,7.64
2022-10-06T21:36:42.740Z,7.61
2022-10-06T21:39:11.165Z,7.58
2022-10-06T21:41:39.417Z,7.57
2022-10-06T21:44:09.643Z,7.55
2022-10-06T21:46:41.090Z,7.53
2022-10-06T21:49:13.728Z,7.52
2022-10-06T21:51:42.009Z,7.50
2022-10-06T21:54:11.829Z,7.48
2022-10-06T21:56:39.347Z,7.46
2022-10-06T21:59:07.242Z,7.46
2022-10-06T22:01:37.545Z,7.46
2022-10-06T22:04:05.149Z,7.45
2022-10-06T22:06:33.974Z,7.44
2022-10-06T22:09:01.607Z,7.41
2022-10-06T22:11:31.283Z,7.37
2022-10-06T22:14:00.441Z,7.33
2022-10-06T22:16:29.926Z,7.31
2022-10-06T22:18:57.809Z,7.29
2022-10-06T22:21:27.792Z,7.25
2022-10-06T22:23:59.916Z,7.22
2022-10-06T22:26:28.942Z,7.22
2022-10-06T22:29:00.122Z,7.22
2022-10-06T22:31:28.006Z,7.23
2022-10-06T22:33:57.674Z,7.24
2022-10-06T22:36:26.310Z,7.25
2022-10-06T22:38:54.170Z,7.24
2022-10-06T22:41:21.757Z,7.24
2022-10-06T22:43:49.029Z,7.23
2022-10-06T22:46:16.175Z,7.21
2022-10-06T22:48:43.595Z,7.20
2022-10-06T22:51:10.748Z,7.19
2022-10-06T22:53:38.113Z,7.19
2022-10-06T22:56:05.383Z,7.21
2022-10-06T22:58:32.633Z,7.22
2022-10-06T23:01:13.617Z,7.20
2022-10-06T23:03:40.946Z,7.21
2022-10-06T23:06:10.571Z,7.23
2022-10-06T23:08:38.268Z,7.25
2022-10-06T23:11:10.491Z,7.24
2022-10-06T23:13:37.843Z,7.25
2022-10-06T23:16:08.343Z,7.26
2022-10-06T23:18:37.864Z,7.29
2022-10-06T23:21:07.747Z,7.29
2022-10-06T23:23:34.993Z,7.31
2022-10-06T23:26:05.863Z,7.30
2022-10-06T23:28:33.697Z,7.31
2022-10-06T23:31:01.061Z,7.32
2022-10-06T23:33:31.912Z,7.32
2022-10-06T23:36:03.093Z,7.34
2022-10-06T23:38:30.457Z,7.35
2022-10-06T23:40:57.778Z,7.37
2022-10-06T23:43:25.021Z,7.39
2022-10-06T23:45:52.388Z,7.39
2022-10-06T23:48:19.659Z,7.41
2022-10-06T23:51:01.673Z,7.42
2022-10-06T23:53:30.146Z,7.45
2022-10-06T23:55:57.275Z,7.46
2022-10-06T23:58:24.731Z,7.47
